sensor_id;sensor_type;location;lat;lon;timestamp;P1;durP1;ratioP1;P2;durP2;ratioP2
8177;SDS011;4130;48.740;9.132;2022-11-06T00:00:31;5.40;;;4.50;;
8177;SDS011;4130;48.740;9.132;2022-11-06T00:02:58;5.13;;;4.03;;
8177;SDS011;4130;48.740;9.132;2022-11-06T00:05:27;4.20;;;3.80;;
8177;SDS011;4130;48.740;9.132;2022-11-06T00:08:11;4.27;;;3.50;;
8177;SDS011;4130;48.740;9.132;2022-11-06T00:10:38;5.27;;;3.87;;
8177;SDS011;4130;48.740;9.132;2022-11-06T00:13:05;4.50;;;4.03;;
8177;SDS011;4130;48.740;9.132;2022-11-06T00:15:32;7.17;;;4.40;;
8177;SDS011;4130;48.740;9.132;2022-11-06T00:17:59;4.50;;;3.80;;
8177;SDS011;4130;48.740;9.132;2022-11-06T00:20:27;4.87;;;4.00;;
8177;SDS011;4130;48.740;9.132;2022-11-06T00:22:54;4.37;;;3.97;;
8177;SDS011;4130;48.740;9.132;2022-11-06T00:25:20;6.43;;;5.20;;
8177;SDS011;4130;48.740;9.132;2022-11-06T00:27:47;7.00;;;5.20;;
8177;SDS011;4130;48.740;9.132;2022-11-06T00:30:14;9.33;;;5.13;;
8177;SDS011;4130;48.740;9.132;2022-11-06T00:32:41;8.33;;;5.90;;
8177;SDS011;4130;48.740;9.132;2022-11-06T00:35:07;7.33;;;5.30;;
8177;SDS011;4130;48.740;9.132;2022-11-06T00:37:36;8.03;;;5.43;;
8177;SDS011;4130;48.740;9.132;2022-11-06T00:40:03;5.87;;;4.57;;
8177;SDS011;4130;48.740;9.132;2022-11-06T00:42:30;6.17;;;4.80;;
8177;SDS011;4130;48.740;9.132;2022-11-06T00:44:57;5.20;;;4.50;;
8177;SDS011;4130;48.740;9.132;2022-11-06T00:47:24;6.47;;;4.40;;
8177;SDS011;4130;48.740;9.132;2022-11-06T00:49:50;5.30;;;4.37;;
8177;SDS011;4130;48.740;9.132;2022-11-06T00:52:17;5.40;;;3.93;;
8177;SDS011;4130;48.740;9.132;2022-11-06T00:54:45;5.50;;;4.50;;
8177;SDS011;4130;48.740;9.132;2022-11-06T00:57:12;5.27;;;4.13;;
8177;SDS011;4130;48.740;9.132;2022-11-06T00:59:39;4.93;;;3.90;;
8177;SDS011;4130;48.740;9.132;2022-11-06T01:02:05;5.07;;;4.47;;
8177;SDS011;4130;48.740;9.132;2022-11-06T01:04:32;4.53;;;3.90;;
8177;SDS011;4130;48.740;9.132;2022-11-06T01:06:59;4.33;;;3.43;;
8177;SDS011;4130;48.740;9.132;2022-11-06T01:09:26;6.27;;;4.53;;
8177;SDS011;4130;48.740;9.132;2022-11-06T01:11:55;5.07;;;4.00;;
8177;SDS011;4130;48.740;9.132;2022-11-06T01:14:23;4.87;;;3.87;;
8177;SDS011;4130;48.740;9.132;2022-11-06T01:16:50;6.00;;;4.77;;
8177;SDS011;4130;48.740;9.132;2022-11-06T01:19:18;7.40;;;4.33;;
8177;SDS011;4130;48.740;9.132;2022-11-06T01:21:46;4.27;;;3.87;;
8177;SDS011;4130;48.740;9.132;2022-11-06T01:24:18;5.13;;;3.50;;
8177;SDS011;4130;48.740;9.132;2022-11-06T01:26:48;4.37;;;3.63;;
8177;SDS011;4130;48.740;9.132;2022-11-06T01:29:17;4.30;;;3.90;;
8177;SDS011;4130;48.740;9.132;2022-11-06T01:31:45;7.00;;;4.33;;
8177;SDS011;4130;48.740;9.132;2022-11-06T01:34:13;4.83;;;4.30;;
8177;SDS011;4130;48.740;9.132;2022-11-06T01:36:41;5.37;;;4.57;;
8177;SDS011;4130;48.740;9.132;2022-11-06T01:39:10;4.90;;;4.37;;
8177;SDS011;4130;48.740;9.132;2022-11-06T01:41:40;7.00;;;4.80;;
8177;SDS011;4130;48.740;9.132;2022-11-06T01:47:17;5.53;;;4.30;;
8177;SDS011;4130;48.740;9.132;2022-11-06T01:49:49;5.67;;;4.30;;
8177;SDS011;4130;48.740;9.132;2022-11-06T01:52:18;6.00;;;3.70;;
8177;SDS011;4130;48.740;9.132;2022-11-06T01:54:47;5.33;;;4.07;;
8177;SDS011;4130;48.740;9.132;2022-11-06T01:57:17;5.40;;;4.53;;
8177;SDS011;4130;48.740;9.132;2022-11-06T01:59:44;5.70;;;4.47;;
8177;SDS011;4130;48.740;9.132;2022-11-06T02:02:11;4.67;;;4.07;;
8177;SDS011;4130;48.740;9.132;2022-11-06T02:04:44;5.10;;;3.90;;
8177;SDS011;4130;48.740;9.132;2022-11-06T02:07:12;5.20;;;4.30;;
8177;SDS011;4130;48.740;9.132;2022-11-06T02:09:39;5.40;;;3.60;;
8177;SDS011;4130;48.740;9.132;2022-11-06T02:12:10;5.83;;;3.90;;
8177;SDS011;4130;48.740;9.132;2022-11-06T02:14:44;4.77;;;3.73;;
8177;SDS011;4130;48.740;9.132;2022-11-06T02:17:23;5.67;;;3.73;;
8177;SDS011;4130;48.740;9.132;2022-11-06T02:20:02;4.13;;;3.53;;
8177;SDS011;4130;48.740;9.132;2022-11-06T02:22:41;5.93;;;4.40;;
8177;SDS011;4130;48.740;9.132;2022-11-06T02:25:29;5.43;;;4.50;;
8177;SDS011;4130;48.740;9.132;2022-11-06T02:28:06;5.87;;;4.00;;
8177;SDS011;4130;48.740;9.132;2022-11-06T02:30:39;4.87;;;3.70;;
8177;SDS011;4130;48.740;9.132;2022-11-06T02:33:11;4.50;;;3.53;;
8177;SDS011;4130;48.740;9.132;2022-11-06T02:35:41;4.63;;;3.67;;
8177;SDS011;4130;48.740;9.132;2022-11-06T02:38:11;4.47;;;3.80;;
8177;SDS011;4130;48.740;9.132;2022-11-06T02:40:43;4.43;;;3.83;;
8177;SDS011;4130;48.740;9.132;2022-11-06T02:43:14;4.10;;;3.37;;
8177;SDS011;4130;48.740;9.132;2022-11-06T02:45:46;8.27;;;3.70;;
8177;SDS011;4130;48.740;9.132;2022-11-06T02:48:16;4.97;;;3.80;;
8177;SDS011;4130;48.740;9.132;2022-11-06T02:50:46;4.00;;;3.47;;
8177;SDS011;4130;48.740;9.132;2022-11-06T02:53:15;4.50;;;3.60;;
8177;SDS011;4130;48.740;9.132;2022-11-06T02:55:46;4.13;;;3.60;;
8177;SDS011;4130;48.740;9.132;2022-11-06T02:58:18;4.23;;;3.30;;
8177;SDS011;4130;48.740;9.132;2022-11-06T03:00:49;5.13;;;3.33;;
8177;SDS011;4130;48.740;9.132;2022-11-06T03:03:20;4.20;;;3.80;;
8177;SDS011;4130;48.740;9.132;2022-11-06T03:05:51;4.57;;;3.63;;
8177;SDS011;4130;48.740;9.132;2022-11-06T03:08:22;3.83;;;3.50;;
8177;SDS011;4130;48.740;9.132;2022-11-06T03:10:54;4.20;;;3.40;;
8177;SDS011;4130;48.740;9.132;2022-11-06T03:13:34;5.33;;;3.47;;
8177;SDS011;4130;48.740;9.132;2022-11-06T03:16:13;3.97;;;3.33;;
8177;SDS011;4130;48.740;9.132;2022-11-06T03:18:49;3.50;;;3.17;;
8177;SDS011;4130;48.740;9.132;2022-11-06T03:21:24;3.77;;;3.43;;
8177;SDS011;4130;48.740;9.132;2022-11-06T03:23:56;4.13;;;3.30;;
8177;SDS011;4130;48.740;9.132;2022-11-06T03:26:28;4.07;;;3.27;;
8177;SDS011;4130;48.740;9.132;2022-11-06T03:29:00;4.60;;;3.33;;
8177;SDS011;4130;48.740;9.132;2022-11-06T03:31:36;4.30;;;3.53;;
8177;SDS011;4130;48.740;9.132;2022-11-06T03:34:06;5.43;;;3.80;;
8177;SDS011;4130;48.740;9.132;2022-11-06T03:36:36;3.37;;;3.07;;
8177;SDS011;4130;48.740;9.132;2022-11-06T03:39:09;4.30;;;3.40;;
8177;SDS011;4130;48.740;9.132;2022-11-06T03:41:40;4.53;;;3.50;;
8177;SDS011;4130;48.740;9.132;2022-11-06T03:44:13;3.57;;;3.27;;
8177;SDS011;4130;48.740;9.132;2022-11-06T03:46:45;4.50;;;3.33;;
8177;SDS011;4130;48.740;9.132;2022-11-06T03:49:15;3.70;;;2.97;;
8177;SDS011;4130;48.740;9.132;2022-11-06T03:51:47;4.80;;;3.30;;
8177;SDS011;4130;48.740;9.132;2022-11-06T03:54:19;3.33;;;3.03;;
8177;SDS011;4130;48.740;9.132;2022-11-06T03:56:53;3.87;;;3.47;;
8177;SDS011;4130;48.740;9.132;2022-11-06T03:59:24;4.93;;;3.17;;
8177;SDS011;4130;48.740;9.132;2022-11-06T04:01:54;3.63;;;3.33;;
8177;SDS011;4130;48.740;9.132;2022-11-06T04:04:24;3.73;;;3.30;;
8177;SDS011;4130;48.740;9.132;2022-11-06T04:06:56;5.80;;;3.70;;
8177;SDS011;4130;48.740;9.132;2022-11-06T04:09:26;4.00;;;3.40;;
8177;SDS011;4130;48.740;9.132;2022-11-06T04:12:13;3.23;;;2.90;;
8177;SDS011;4130;48.740;9.132;2022-11-06T04:15:04;4.20;;;3.03;;
8177;SDS011;4130;48.740;9.132;2022-11-06T04:17:34;3.97;;;3.20;;
8177;SDS011;4130;48.740;9.132;2022-11-06T04:20:04;4.00;;;3.57;;
8177;SDS011;4130;48.740;9.132;2022-11-06T04:22:38;4.50;;;3.63;;
8177;SDS011;4130;48.740;9.132;2022-11-06T04:25:14;4.03;;;3.60;;
8177;SDS011;4130;48.740;9.132;2022-11-06T04:28:13;3.60;;;3.03;;
8177;SDS011;4130;48.740;9.132;2022-11-06T04:30:51;4.00;;;3.17;;
8177;SDS011;4130;48.740;9.132;2022-11-06T04:33:27;3.60;;;2.97;;
8177;SDS011;4130;48.740;9.132;2022-11-06T04:36:00;3.37;;;3.07;;
8177;SDS011;4130;48.740;9.132;2022-11-06T04:38:38;3.80;;;3.30;;
8177;SDS011;4130;48.740;9.132;2022-11-06T04:41:11;5.67;;;3.50;;
8177;SDS011;4130;48.740;9.132;2022-11-06T04:43:45;3.47;;;3.10;;
8177;SDS011;4130;48.740;9.132;2022-11-06T04:46:18;4.40;;;3.53;;
8177;SDS011;4130;48.740;9.132;2022-11-06T04:48:47;5.80;;;3.33;;
8177;SDS011;4130;48.740;9.132;2022-11-06T04:51:15;4.17;;;3.60;;
8177;SDS011;4130;48.740;9.132;2022-11-06T04:53:46;3.27;;;2.93;;
8177;SDS011;4130;48.740;9.132;2022-11-06T04:56:20;5.33;;;3.70;;
8177;SDS011;4130;48.740;9.132;2022-11-06T04:58:48;3.87;;;3.47;;
8177;SDS011;4130;48.740;9.132;2022-11-06T05:01:14;3.80;;;3.27;;
8177;SDS011;4130;48.740;9.132;2022-11-06T05:03:43;3.33;;;3.00;;
8177;SDS011;4130;48.740;9.132;2022-11-06T05:06:09;3.27;;;2.93;;
8177;SDS011;4130;48.740;9.132;2022-11-06T05:08:36;3.83;;;3.43;;
8177;SDS011;4130;48.740;9.132;2022-11-06T05:11:03;3.23;;;2.93;;
8177;SDS011;4130;48.740;9.132;2022-11-06T05:13:30;3.37;;;2.73;;
8177;SDS011;4130;48.740;9.132;2022-11-06T05:15:57;3.07;;;2.80;;
8177;SDS011;4130;48.740;9.132;2022-11-06T05:18:25;5.07;;;3.23;;
8177;SDS011;4130;48.740;9.132;2022-11-06T05:20:57;3.67;;;2.90;;
8177;SDS011;4130;48.740;9.132;2022-11-06T05:23:38;3.37;;;3.07;;
8177;SDS011;4130;48.740;9.132;2022-11-06T05:26:06;3.23;;;2.63;;
8177;SDS011;4130;48.740;9.132;2022-11-06T05:28:33;3.10;;;2.80;;
8177;SDS011;4130;48.740;9.132;2022-11-06T05:31:00;2.60;;;2.40;;
8177;SDS011;4130;48.740;9.132;2022-11-06T05:33:26;2.80;;;2.57;;
8177;SDS011;4130;48.740;9.132;2022-11-06T05:35:55;4.90;;;2.80;;
8177;SDS011;4130;48.740;9.132;2022-11-06T05:38:26;3.17;;;2.60;;
8177;SDS011;4130;48.740;9.132;2022-11-06T05:40:52;2.90;;;2.70;;
8177;SDS011;4130;48.740;9.132;2022-11-06T05:43:19;3.13;;;2.80;;
8177;SDS011;4130;48.740;9.132;2022-11-06T05:45:46;2.87;;;2.63;;
8177;SDS011;4130;48.740;9.132;2022-11-06T05:48:13;3.00;;;2.70;;
8177;SDS011;4130;48.740;9.132;2022-11-06T05:50:39;2.87;;;2.67;;
8177;SDS011;4130;48.740;9.132;2022-11-06T05:53:08;2.70;;;2.47;;
8177;SDS011;4130;48.740;9.132;2022-11-06T05:55:35;3.43;;;3.13;;
8177;SDS011;4130;48.740;9.132;2022-11-06T05:58:01;3.73;;;2.97;;
8177;SDS011;4130;48.740;9.132;2022-11-06T06:00:28;3.00;;;2.67;;
8177;SDS011;4130;48.740;9.132;2022-11-06T06:02:55;3.07;;;2.60;;
8177;SDS011;4130;48.740;9.132;2022-11-06T06:05:22;3.10;;;2.60;;
8177;SDS011;4130;48.740;9.132;2022-11-06T06:07:48;3.10;;;2.80;;
8177;SDS011;4130;48.740;9.132;2022-11-06T06:10:16;2.83;;;2.27;;
8177;SDS011;4130;48.740;9.132;2022-11-06T06:12:43;3.23;;;2.90;;
8177;SDS011;4130;48.740;9.132;2022-11-06T06:15:10;3.27;;;2.93;;
8177;SDS011;4130;48.740;9.132;2022-11-06T06:17:39;3.47;;;2.97;;
8177;SDS011;4130;48.740;9.132;2022-11-06T06:20:06;4.20;;;3.17;;
8177;SDS011;4130;48.740;9.132;2022-11-06T06:22:34;4.03;;;2.93;;
8177;SDS011;4130;48.740;9.132;2022-11-06T06:25:00;3.37;;;2.83;;
8177;SDS011;4130;48.740;9.132;2022-11-06T06:27:28;3.30;;;3.00;;
8177;SDS011;4130;48.740;9.132;2022-11-06T06:29:55;2.93;;;2.60;;
8177;SDS011;4130;48.740;9.132;2022-11-06T06:32:22;3.17;;;2.87;;
8177;SDS011;4130;48.740;9.132;2022-11-06T06:34:49;5.17;;;2.83;;
8177;SDS011;4130;48.740;9.132;2022-11-06T06:37:16;3.60;;;3.10;;
8177;SDS011;4130;48.740;9.132;2022-11-06T06:39:43;3.47;;;2.87;;
8177;SDS011;4130;48.740;9.132;2022-11-06T06:42:09;3.37;;;2.93;;
8177;SDS011;4130;48.740;9.132;2022-11-06T06:44:37;4.23;;;3.00;;
8177;SDS011;4130;48.740;9.132;2022-11-06T06:47:04;5.77;;;2.70;;
8177;SDS011;4130;48.740;9.132;2022-11-06T06:49:31;2.83;;;2.63;;
8177;SDS011;4130;48.740;9.132;2022-11-06T06:51:57;2.87;;;2.67;;
8177;SDS011;4130;48.740;9.132;2022-11-06T06:54:24;3.30;;;3.00;;
8177;SDS011;4130;48.740;9.132;2022-11-06T06:56:51;4.47;;;3.13;;
8177;SDS011;4130;48.740;9.132;2022-11-06T06:59:18;5.23;;;3.20;;
8177;SDS011;4130;48.740;9.132;2022-11-06T07:01:46;2.70;;;2.47;;
8177;SDS011;4130;48.740;9.132;2022-11-06T07:04:12;3.40;;;3.10;;
8177;SDS011;4130;48.740;9.132;2022-11-06T07:06:39;3.50;;;3.00;;
8177;SDS011;4130;48.740;9.132;2022-11-06T07:09:06;4.57;;;3.03;;
8177;SDS011;4130;48.740;9.132;2022-11-06T07:11:33;3.23;;;2.77;;
8177;SDS011;4130;48.740;9.132;2022-11-06T07:14:00;3.83;;;3.40;;
8177;SDS011;4130;48.740;9.132;2022-11-06T07:16:26;4.77;;;3.53;;
8177;SDS011;4130;48.740;9.132;2022-11-06T07:18:55;3.23;;;2.93;;
8177;SDS011;4130;48.740;9.132;2022-11-06T07:21:22;4.13;;;3.40;;
8177;SDS011;4130;48.740;9.132;2022-11-06T07:23:48;4.10;;;3.43;;
8177;SDS011;4130;48.740;9.132;2022-11-06T07:26:16;2.87;;;2.67;;
8177;SDS011;4130;48.740;9.132;2022-11-06T07:28:42;3.97;;;3.57;;
8177;SDS011;4130;48.740;9.132;2022-11-06T07:31:09;3.60;;;3.30;;
8177;SDS011;4130;48.740;9.132;2022-11-06T07:33:37;3.70;;;3.23;;
8177;SDS011;4130;48.740;9.132;2022-11-06T07:36:06;3.80;;;3.50;;
8177;SDS011;4130;48.740;9.132;2022-11-06T07:38:34;4.77;;;3.70;;
8177;SDS011;4130;48.740;9.132;2022-11-06T07:41:02;4.23;;;3.20;;
8177;SDS011;4130;48.740;9.132;2022-11-06T07:43:30;5.00;;;3.77;;
8177;SDS011;4130;48.740;9.132;2022-11-06T07:45:57;5.67;;;3.90;;
8177;SDS011;4130;48.740;9.132;2022-11-06T07:48:25;3.80;;;3.50;;
8177;SDS011;4130;48.740;9.132;2022-11-06T07:50:52;5.57;;;4.20;;
8177;SDS011;4130;48.740;9.132;2022-11-06T07:53:20;4.97;;;3.70;;
8177;SDS011;4130;48.740;9.132;2022-11-06T07:55:47;3.90;;;3.40;;
8177;SDS011;4130;48.740;9.132;2022-11-06T07:58:14;4.07;;;3.57;;
8177;SDS011;4130;48.740;9.132;2022-11-06T08:00:44;4.90;;;3.53;;
8177;SDS011;4130;48.740;9.132;2022-11-06T08:03:11;5.23;;;3.73;;
8177;SDS011;4130;48.740;9.132;2022-11-06T08:05:38;4.33;;;3.73;;
8177;SDS011;4130;48.740;9.132;2022-11-06T08:08:05;9.20;;;4.27;;
8177;SDS011;4130;48.740;9.132;2022-11-06T08:10:33;7.30;;;4.60;;
8177;SDS011;4130;48.740;9.132;2022-11-06T08:13:04;8.17;;;4.90;;
8177;SDS011;4130;48.740;9.132;2022-11-06T08:15:31;5.47;;;4.20;;
8177;SDS011;4130;48.740;9.132;2022-11-06T08:17:58;5.17;;;3.73;;
8177;SDS011;4130;48.740;9.132;2022-11-06T08:20:25;4.93;;;4.23;;
8177;SDS011;4130;48.740;9.132;2022-11-06T08:22:54;5.57;;;4.33;;
8177;SDS011;4130;48.740;9.132;2022-11-06T08:25:23;7.10;;;4.43;;
8177;SDS011;4130;48.740;9.132;2022-11-06T08:27:54;6.87;;;3.87;;
8177;SDS011;4130;48.740;9.132;2022-11-06T08:30:21;6.63;;;4.27;;
8177;SDS011;4130;48.740;9.132;2022-11-06T08:32:48;5.43;;;4.17;;
8177;SDS011;4130;48.740;9.132;2022-11-06T08:35:15;5.27;;;4.17;;
8177;SDS011;4130;48.740;9.132;2022-11-06T08:37:42;6.40;;;4.70;;
8177;SDS011;4130;48.740;9.132;2022-11-06T08:40:10;6.03;;;4.27;;
8177;SDS011;4130;48.740;9.132;2022-11-06T08:42:37;5.00;;;4.20;;
8177;SDS011;4130;48.740;9.132;2022-11-06T08:45:06;5.17;;;4.10;;
8177;SDS011;4130;48.740;9.132;2022-11-06T08:47:36;4.97;;;3.93;;
8177;SDS011;4130;48.740;9.132;2022-11-06T08:50:03;4.90;;;3.63;;
8177;SDS011;4130;48.740;9.132;2022-11-06T08:52:30;4.23;;;3.30;;
8177;SDS011;4130;48.740;9.132;2022-11-06T08:54:57;5.53;;;4.27;;
8177;SDS011;4130;48.740;9.132;2022-11-06T08:57:23;4.00;;;3.57;;
8177;SDS011;4130;48.740;9.132;2022-11-06T08:59:50;5.63;;;4.33;;
8177;SDS011;4130;48.740;9.132;2022-11-06T09:02:18;5.50;;;4.00;;
8177;SDS011;4130;48.740;9.132;2022-11-06T09:04:45;5.27;;;4.23;;
8177;SDS011;4130;48.740;9.132;2022-11-06T09:07:12;4.80;;;3.93;;
8177;SDS011;4130;48.740;9.132;2022-11-06T09:09:39;4.97;;;3.87;;
8177;SDS011;4130;48.740;9.132;2022-11-06T09:12:06;5.67;;;4.27;;
8177;SDS011;4130;48.740;9.132;2022-11-06T09:14:33;4.83;;;3.70;;
8177;SDS011;4130;48.740;9.132;2022-11-06T09:17:00;3.97;;;3.60;;
8177;SDS011;4130;48.740;9.132;2022-11-06T09:19:28;4.37;;;3.50;;
8177;SDS011;4130;48.740;9.132;2022-11-06T09:24:24;4.47;;;3.63;;
8177;SDS011;4130;48.740;9.132;2022-11-06T09:26:52;4.83;;;3.90;;
8177;SDS011;4130;48.740;9.132;2022-11-06T09:29:19;5.20;;;4.20;;
8177;SDS011;4130;48.740;9.132;2022-11-06T09:31:45;6.20;;;4.20;;
8177;SDS011;4130;48.740;9.132;2022-11-06T09:34:12;4.63;;;4.03;;
8177;SDS011;4130;48.740;9.132;2022-11-06T09:36:41;5.13;;;4.00;;
8177;SDS011;4130;48.740;9.132;2022-11-06T09:39:08;4.87;;;3.73;;
8177;SDS011;4130;48.740;9.132;2022-11-06T09:41:36;5.13;;;3.73;;
8177;SDS011;4130;48.740;9.132;2022-11-06T09:44:16;5.17;;;3.80;;
8177;SDS011;4130;48.740;9.132;2022-11-06T09:49:22;5.40;;;3.93;;
8177;SDS011;4130;48.740;9.132;2022-11-06T09:51:56;5.40;;;3.80;;
8177;SDS011;4130;48.740;9.132;2022-11-06T09:54:26;5.33;;;3.47;;
8177;SDS011;4130;48.740;9.132;2022-11-06T09:56:57;4.43;;;3.33;;
8177;SDS011;4130;48.740;9.132;2022-11-06T09:59:27;6.67;;;3.87;;
8177;SDS011;4130;48.740;9.132;2022-11-06T10:01:58;5.23;;;3.50;;
8177;SDS011;4130;48.740;9.132;2022-11-06T10:04:28;5.83;;;4.00;;
8177;SDS011;4130;48.740;9.132;2022-11-06T10:07:06;7.37;;;4.00;;
8177;SDS011;4130;48.740;9.132;2022-11-06T10:09:44;4.83;;;3.63;;
8177;SDS011;4130;48.740;9.132;2022-11-06T10:12:12;5.53;;;4.17;;
8177;SDS011;4130;48.740;9.132;2022-11-06T10:14:48;6.93;;;4.47;;
8177;SDS011;4130;48.740;9.132;2022-11-06T10:17:28;6.70;;;4.10;;
8177;SDS011;4130;48.740;9.132;2022-11-06T10:20:08;5.00;;;3.80;;
8177;SDS011;4130;48.740;9.132;2022-11-06T10:22:44;4.43;;;3.33;;
8177;SDS011;4130;48.740;9.132;2022-11-06T10:25:17;5.60;;;3.97;;
8177;SDS011;4130;48.740;9.132;2022-11-06T10:27:50;8.17;;;4.03;;
8177;SDS011;4130;48.740;9.132;2022-11-06T10:30:25;5.87;;;3.93;;
8177;SDS011;4130;48.740;9.132;2022-11-06T10:33:12;6.47;;;4.70;;
8177;SDS011;4130;48.740;9.132;2022-11-06T10:35:52;5.43;;;4.23;;
8177;SDS011;4130;48.740;9.132;2022-11-06T10:38:26;7.90;;;4.30;;
8177;SDS011;4130;48.740;9.132;2022-11-06T10:40:55;8.33;;;4.50;;
8177;SDS011;4130;48.740;9.132;2022-11-06T10:43:24;6.17;;;4.70;;
8177;SDS011;4130;48.740;9.132;2022-11-06T10:45:57;7.50;;;4.80;;
8177;SDS011;4130;48.740;9.132;2022-11-06T10:48:29;5.30;;;3.87;;
8177;SDS011;4130;48.740;9.132;2022-11-06T10:51:10;5.90;;;4.70;;
8177;SDS011;4130;48.740;9.132;2022-11-06T10:53:49;4.73;;;3.87;;
8177;SDS011;4130;48.740;9.132;2022-11-06T10:56:28;6.93;;;3.97;;
8177;SDS011;4130;48.740;9.132;2022-11-06T10:59:00;5.37;;;4.40;;
8177;SDS011;4130;48.740;9.132;2022-11-06T11:01:27;3.90;;;3.50;;
8177;SDS011;4130;48.740;9.132;2022-11-06T11:03:54;3.90;;;3.47;;
8177;SDS011;4130;48.740;9.132;2022-11-06T11:06:21;3.37;;;3.07;;
8177;SDS011;4130;48.740;9.132;2022-11-06T11:08:49;3.17;;;2.87;;
8177;SDS011;4130;48.740;9.132;2022-11-06T11:11:18;3.30;;;3.00;;
8177;SDS011;4130;48.740;9.132;2022-11-06T11:16:39;3.43;;;2.90;;
8177;SDS011;4130;48.740;9.132;2022-11-06T11:19:13;3.27;;;2.73;;
8177;SDS011;4130;48.740;9.132;2022-11-06T11:21:52;3.43;;;3.00;;
8177;SDS011;4130;48.740;9.132;2022-11-06T11:24:22;3.40;;;3.10;;
8177;SDS011;4130;48.740;9.132;2022-11-06T11:26:50;3.70;;;3.20;;
8177;SDS011;4130;48.740;9.132;2022-11-06T11:29:21;2.97;;;2.67;;
8177;SDS011;4130;48.740;9.132;2022-11-06T11:31:50;2.90;;;2.60;;
8177;SDS011;4130;48.740;9.132;2022-11-06T11:34:20;2.70;;;2.50;;
8177;SDS011;4130;48.740;9.132;2022-11-06T11:36:49;3.40;;;3.03;;
8177;SDS011;4130;48.740;9.132;2022-11-06T11:39:19;3.47;;;2.90;;
8177;SDS011;4130;48.740;9.132;2022-11-06T11:41:49;3.83;;;2.80;;
8177;SDS011;4130;48.740;9.132;2022-11-06T11:44:16;4.93;;;3.47;;
8177;SDS011;4130;48.740;9.132;2022-11-06T11:46:44;3.50;;;3.00;;
8177;SDS011;4130;48.740;9.132;2022-11-06T11:49:24;5.20;;;2.93;;
8177;SDS011;4130;48.740;9.132;2022-11-06T11:51:52;3.33;;;3.00;;
8177;SDS011;4130;48.740;9.132;2022-11-06T11:54:20;3.20;;;2.90;;
8177;SDS011;4130;48.740;9.132;2022-11-06T11:56:51;4.63;;;2.80;;
8177;SDS011;4130;48.740;9.132;2022-11-06T11:59:21;3.53;;;2.70;;
8177;SDS011;4130;48.740;9.132;2022-11-06T12:01:52;2.60;;;2.40;;
8177;SDS011;4130;48.740;9.132;2022-11-06T12:04:22;3.67;;;2.30;;
8177;SDS011;4130;48.740;9.132;2022-11-06T12:06:54;2.50;;;2.30;;
8177;SDS011;4130;48.740;9.132;2022-11-06T12:09:25;2.90;;;2.60;;
8177;SDS011;4130;48.740;9.132;2022-11-06T12:11:53;3.20;;;2.47;;
8177;SDS011;4130;48.740;9.132;2022-11-06T12:14:30;2.60;;;2.40;;
8177;SDS011;4130;48.740;9.132;2022-11-06T12:17:01;2.80;;;2.50;;
8177;SDS011;4130;48.740;9.132;2022-11-06T12:19:45;2.63;;;2.43;;
8177;SDS011;4130;48.740;9.132;2022-11-06T12:22:21;3.43;;;2.70;;
8177;SDS011;4130;48.740;9.132;2022-11-06T12:24:53;2.80;;;2.20;;
8177;SDS011;4130;48.740;9.132;2022-11-06T12:27:24;3.80;;;2.30;;
8177;SDS011;4130;48.740;9.132;2022-11-06T12:29:56;2.70;;;2.40;;
8177;SDS011;4130;48.740;9.132;2022-11-06T12:32:33;4.60;;;2.50;;
8177;SDS011;4130;48.740;9.132;2022-11-06T12:35:10;2.73;;;2.50;;
8177;SDS011;4130;48.740;9.132;2022-11-06T12:37:43;2.60;;;2.30;;
8177;SDS011;4130;48.740;9.132;2022-11-06T12:40:23;2.60;;;2.40;;
8177;SDS011;4130;48.740;9.132;2022-11-06T12:42:57;2.47;;;2.27;;
8177;SDS011;4130;48.740;9.132;2022-11-06T12:45:32;3.27;;;2.50;;
8177;SDS011;4130;48.740;9.132;2022-11-06T12:48:12;3.63;;;2.33;;
8177;SDS011;4130;48.740;9.132;2022-11-06T12:50:49;3.53;;;2.50;;
8177;SDS011;4130;48.740;9.132;2022-11-06T12:53:29;3.10;;;2.60;;
8177;SDS011;4130;48.740;9.132;2022-11-06T12:56:09;3.60;;;2.77;;
8177;SDS011;4130;48.740;9.132;2022-11-06T12:58:51;3.73;;;2.40;;
8177;SDS011;4130;48.740;9.132;2022-11-06T13:01:29;2.93;;;2.73;;
8177;SDS011;4130;48.740;9.132;2022-11-06T13:04:13;2.87;;;2.67;;
8177;SDS011;4130;48.740;9.132;2022-11-06T13:09:40;3.93;;;2.67;;
8177;SDS011;4130;48.740;9.132;2022-11-06T13:12:17;3.00;;;2.57;;
8177;SDS011;4130;48.740;9.132;2022-11-06T13:14:51;2.73;;;2.50;;
8177;SDS011;4130;48.740;9.132;2022-11-06T13:17:27;4.23;;;2.70;;
8177;SDS011;4130;48.740;9.132;2022-11-06T13:20:00;3.77;;;2.77;;
8177;SDS011;4130;48.740;9.132;2022-11-06T13:22:33;4.83;;;2.77;;
8177;SDS011;4130;48.740;9.132;2022-11-06T13:25:06;3.10;;;2.60;;
8177;SDS011;4130;48.740;9.132;2022-11-06T13:27:42;3.73;;;2.90;;
8177;SDS011;4130;48.740;9.132;2022-11-06T13:30:14;2.60;;;2.40;;
8177;SDS011;4130;48.740;9.132;2022-11-06T13:32:49;5.43;;;3.00;;
8177;SDS011;4130;48.740;9.132;2022-11-06T13:35:32;2.60;;;2.40;;
8177;SDS011;4130;48.740;9.132;2022-11-06T13:38:12;3.33;;;2.50;;
8177;SDS011;4130;48.740;9.132;2022-11-06T13:40:46;3.40;;;2.70;;
8177;SDS011;4130;48.740;9.132;2022-11-06T13:43:20;2.60;;;2.40;;
8177;SDS011;4130;48.740;9.132;2022-11-06T13:45:52;2.77;;;2.57;;
8177;SDS011;4130;48.740;9.132;2022-11-06T13:48:29;5.50;;;3.13;;
8177;SDS011;4130;48.740;9.132;2022-11-06T13:51:02;4.80;;;3.10;;
8177;SDS011;4130;48.740;9.132;2022-11-06T13:53:36;7.17;;;3.47;;
8177;SDS011;4130;48.740;9.132;2022-11-06T13:56:10;3.17;;;2.77;;
8177;SDS011;4130;48.740;9.132;2022-11-06T13:59:05;5.03;;;2.77;;
8177;SDS011;4130;48.740;9.132;2022-11-06T14:01:52;2.93;;;2.63;;
8177;SDS011;4130;48.740;9.132;2022-11-06T14:04:33;2.83;;;2.53;;
8177;SDS011;4130;48.740;9.132;2022-11-06T14:07:18;3.00;;;2.70;;
8177;SDS011;4130;48.740;9.132;2022-11-06T14:09:46;3.03;;;2.70;;
8177;SDS011;4130;48.740;9.132;2022-11-06T14:12:14;2.83;;;2.50;;
8177;SDS011;4130;48.740;9.132;2022-11-06T14:14:45;2.60;;;2.40;;
8177;SDS011;4130;48.740;9.132;2022-11-06T14:17:17;3.60;;;2.97;;
8177;SDS011;4130;48.740;9.132;2022-11-06T14:20:00;3.30;;;2.77;;
8177;SDS011;4130;48.740;9.132;2022-11-06T14:22:31;3.50;;;2.80;;
8177;SDS011;4130;48.740;9.132;2022-11-06T14:25:00;3.53;;;2.73;;
8177;SDS011;4130;48.740;9.132;2022-11-06T14:28:07;3.33;;;3.03;;
8177;SDS011;4130;48.740;9.132;2022-11-06T14:30:41;5.23;;;2.87;;
8177;SDS011;4130;48.740;9.132;2022-11-06T14:33:09;3.27;;;2.70;;
8177;SDS011;4130;48.740;9.132;2022-11-06T14:35:57;3.63;;;2.83;;
8177;SDS011;4130;48.740;9.132;2022-11-06T14:38:33;2.67;;;2.47;;
8177;SDS011;4130;48.740;9.132;2022-11-06T14:41:03;3.40;;;3.10;;
8177;SDS011;4130;48.740;9.132;2022-11-06T14:44:32;3.37;;;2.90;;
8177;SDS011;4130;48.740;9.132;2022-11-06T14:47:07;3.73;;;3.00;;
8177;SDS011;4130;48.740;9.132;2022-11-06T14:49:54;3.53;;;2.97;;
8177;SDS011;4130;48.740;9.132;2022-11-06T14:52:23;3.27;;;2.83;;
8177;SDS011;4130;48.740;9.132;2022-11-06T14:54:52;3.90;;;3.00;;
8177;SDS011;4130;48.740;9.132;2022-11-06T14:57:33;4.83;;;3.63;;
8177;SDS011;4130;48.740;9.132;2022-11-06T15:00:05;4.20;;;3.10;;
8177;SDS011;4130;48.740;9.132;2022-11-06T15:02:36;4.60;;;3.30;;
8177;SDS011;4130;48.740;9.132;2022-11-06T15:05:04;3.93;;;2.93;;
8177;SDS011;4130;48.740;9.132;2022-11-06T15:07:50;3.53;;;2.73;;
8177;SDS011;4130;48.740;9.132;2022-11-06T15:10:46;3.07;;;2.77;;
8177;SDS011;4130;48.740;9.132;2022-11-06T15:13:27;2.77;;;2.57;;
8177;SDS011;4130;48.740;9.132;2022-11-06T15:16:00;3.30;;;2.87;;
8177;SDS011;4130;48.740;9.132;2022-11-06T15:18:37;4.00;;;3.17;;
8177;SDS011;4130;48.740;9.132;2022-11-06T15:21:08;4.07;;;2.87;;
8177;SDS011;4130;48.740;9.132;2022-11-06T15:23:51;3.97;;;3.00;;
8177;SDS011;4130;48.740;9.132;2022-11-06T15:26:23;3.00;;;2.37;;
8177;SDS011;4130;48.740;9.132;2022-11-06T15:29:00;3.47;;;2.80;;
8177;SDS011;4130;48.740;9.132;2022-11-06T15:31:34;3.60;;;3.10;;
8177;SDS011;4130;48.740;9.132;2022-11-06T15:34:04;3.40;;;2.90;;
8177;SDS011;4130;48.740;9.132;2022-11-06T15:36:36;3.93;;;3.10;;
8177;SDS011;4130;48.740;9.132;2022-11-06T15:39:21;3.83;;;2.80;;
8177;SDS011;4130;48.740;9.132;2022-11-06T15:41:58;3.20;;;2.90;;
8177;SDS011;4130;48.740;9.132;2022-11-06T15:44:25;5.17;;;3.00;;
8177;SDS011;4130;48.740;9.132;2022-11-06T15:46:53;4.07;;;3.20;;
8177;SDS011;4130;48.740;9.132;2022-11-06T15:49:23;5.90;;;3.00;;
8177;SDS011;4130;48.740;9.132;2022-11-06T15:51:52;3.07;;;2.70;;
8177;SDS011;4130;48.740;9.132;2022-11-06T15:54:30;3.13;;;2.43;;